Terminal Aerodrome Forecast
Issued by NWS Cleveland, OH

Home | Current Version | Previous Version | Graphics & Text | Print | Product List | Glossary On
Versions: 1 2 3 4 5 6 7 8 9 10 11 12 13 14 15 16
000
FTUS41 KCLE 201100
TAFMFD
TAF
KMFD 201134Z 2012/2112 VRB03KT 5SM BR BKN012 BKN020
      TEMPO 2012/2013 1/2SM FG BKN002
     FM201600 VRB04KT P6SM BKN020
     FM202100 18004KT P6SM SCT050
     FM210900 00000KT 4SM BR SKC=

USA.gov is the U.S. government's official web portal to all federal, state and local government web resources and services.